Time;durP1;ratioP1;P1;durP2;ratioP2;P2;SDS_P1;SDS_P2;PMS_P1;PMS_P2;Temp;Humidity;BMP_temperature;BMP_pressure;BME280_temperature;BME280_humidity;BME280_pressure;Samples;Min_cycle;Max_cycle;Signal;HPM_P1;HPM_P2
2021/10/29 00:00:02;;;;;;;353.40;49.63;;;;;;;3.35;100.00;95847.16;1030603;28;20421;-70
2021/10/29 00:00:34;;;;;;;401.52;51.80;;;;;;;3.33;100.00;95844.78;1031178;28;20162;-71
2021/10/29 00:01:04;;;;;;;294.20;47.16;;;;;;;3.34;100.00;95851.56;1036929;28;20056;-71
2021/10/29 00:01:35;;;;;;;341.83;59.30;;;;;;;3.35;100.00;95850.53;1038558;28;20125;-72
2021/10/29 00:02:05;;;;;;;360.20;60.17;;;;;;;3.33;100.00;95851.78;1034244;28;20030;-72
2021/10/29 00:02:36;;;;;;;417.08;65.22;;;;;;;3.25;100.00;95838.09;1030104;28;20014;-71
2021/10/29 00:03:06;;;;;;;233.60;42.00;;;;;;;3.35;100.00;95850.53;1030308;28;20074;-71
2021/10/29 00:03:39;;;;;;;316.77;54.38;;;;;;;3.40;100.00;95853.28;1034529;28;20018;-71
2021/10/29 00:04:10;;;;;;;279.70;46.50;;;;;;;3.38;100.00;95857.88;1031482;28;20156;-70
2021/10/29 00:04:40;;;;;;;281.15;45.03;;;;;;;3.38;100.00;95852.69;1027459;28;20055;-72
2021/10/29 00:05:11;;;;;;;285.60;50.40;;;;;;;3.34;100.00;95851.56;1033829;28;20057;-72
2021/10/29 00:05:41;;;;;;;281.48;46.35;;;;;;;3.40;100.00;95850.69;1033219;28;20037;-73
2021/10/29 00:06:12;;;;;;;240.77;42.85;;;;;;;3.36;100.00;95854.72;1034345;28;20066;-71
2021/10/29 00:06:42;;;;;;;383.35;49.22;;;;;;;3.27;100.00;95845.63;1034315;28;20444;-72
2021/10/29 00:07:13;;;;;;;251.25;44.30;;;;;;;3.32;100.00;95848.41;1035398;28;20073;-71
2021/10/29 00:07:44;;;;;;;305.35;49.30;;;;;;;3.28;100.00;95852.41;1030221;28;20094;-71
2021/10/29 00:08:14;;;;;;;258.25;45.10;;;;;;;3.21;100.00;95836.91;1030528;28;20025;-70
2021/10/29 00:08:45;;;;;;;266.75;51.17;;;;;;;3.31;100.00;95855.34;1034479;28;20010;-72
2021/10/29 00:09:15;;;;;;;252.20;50.58;;;;;;;3.38;100.00;95851.91;1034619;28;20020;-72
2021/10/29 00:09:45;;;;;;;387.33;56.03;;;;;;;3.35;100.00;95847.16;1034293;28;20104;-73
2021/10/29 00:10:16;;;;;;;339.08;52.30;;;;;;;3.38;100.00;95852.69;1026652;28;20418;-71
2021/10/29 00:10:46;;;;;;;345.15;54.58;;;;;;;3.42;100.00;95851.28;1034616;28;20014;-71
2021/10/29 00:11:17;;;;;;;290.83;53.08;;;;;;;3.42;100.00;95848.69;1034302;28;20025;-72
2021/10/29 00:11:47;;;;;;;321.20;52.20;;;;;;;3.41;100.00;95851.50;1030620;28;20014;-72
2021/10/29 00:12:18;;;;;;;247.57;44.80;;;;;;;3.38;100.00;95852.69;1042864;28;20014;-70
2021/10/29 00:12:49;;;;;;;227.00;43.12;;;;;;;3.41;100.00;95846.31;1034562;28;20424;-70
2021/10/29 00:13:21;;;;;;;270.80;46.60;;;;;;;3.40;100.00;95848.09;1030508;28;20031;-72
2021/10/29 00:13:51;;;;;;;243.74;46.08;;;;;;;3.38;100.00;95852.69;1034570;28;20025;-71
2021/10/29 00:14:22;;;;;;;262.02;47.10;;;;;;;3.42;100.00;95856.47;1034512;28;20571;-72
2021/10/29 00:14:53;;;;;;;249.68;43.98;;;;;;;3.35;100.00;95841.97;1030384;28;20015;-71
2021/10/29 00:15:23;;;;;;;241.88;46.60;;;;;;;3.43;100.00;95855.47;1029637;28;20631;-72
2021/10/29 00:15:54;;;;;;;232.82;47.22;;;;;;;3.41;100.00;95847.09;1034220;28;20021;-71
2021/10/29 00:16:24;;;;;;;219.88;45.13;;;;;;;3.40;100.00;95847.31;1029590;28;20165;-71
2021/10/29 00:16:55;;;;;;;242.50;44.67;;;;;;;3.37;100.00;95842.56;1033719;28;20018;-71
2021/10/29 00:17:25;;;;;;;172.73;43.40;;;;;;;3.37;100.00;95840.75;1036733;28;20018;-72
2021/10/29 00:17:55;;;;;;;189.68;44.65;;;;;;;3.44;100.00;95851.06;1038583;28;20018;-74
2021/10/29 00:18:27;;;;;;;237.77;44.25;;;;;;;3.38;100.00;95852.69;1034550;28;20014;-72
2021/10/29 00:18:57;;;;;;;189.40;41.88;;;;;;;3.39;100.00;95846.53;1034574;28;20018;-73
2021/10/29 00:19:28;;;;;;;258.73;47.08;;;;;;;3.40;100.00;95852.50;1030287;28;20030;-72
2021/10/29 00:19:58;;;;;;;197.80;44.67;;;;;;;3.40;100.00;95850.69;1033956;28;20429;-73
2021/10/29 00:20:29;;;;;;;263.17;49.03;;;;;;;3.38;100.00;95844.13;1030729;28;20053;-72
2021/10/29 00:20:59;;;;;;;224.30;47.95;;;;;;;3.43;100.00;95845.09;1030669;28;20022;-70
2021/10/29 00:21:29;;;;;;;209.93;45.15;;;;;;;3.44;100.00;95845.88;1033217;28;20026;-72
2021/10/29 00:22:00;;;;;;;289.85;48.45;;;;;;;3.42;100.00;95848.69;1026600;28;20015;-72
2021/10/29 00:22:31;;;;;;;247.93;51.45;;;;;;;3.41;100.00;95849.69;1026643;28;20129;-72
2021/10/29 00:23:01;;;;;;;254.70;45.72;;;;;;;3.41;100.00;95847.09;1031311;28;20029;-71
2021/10/29 00:23:32;;;;;;;179.38;42.80;;;;;;;3.34;100.00;95825.63;1030449;28;20092;-71
2021/10/29 00:24:02;;;;;;;227.68;43.97;;;;;;;3.46;100.00;95852.44;1030537;28;20030;-72
2021/10/29 00:24:33;;;;;;;220.25;49.45;;;;;;;3.48;100.00;95850.41;1031060;28;20093;-72
2021/10/29 00:25:04;;;;;;;316.80;51.78;;;;;;;3.36;100.00;95841.75;1034528;28;20022;-71
2021/10/29 00:25:34;;;;;;;237.90;47.15;;;;;;;3.45;100.00;95843.06;1025663;28;20286;-73
2021/10/29 00:26:05;;;;;;;287.33;44.35;;;;;;;3.40;100.00;95844.72;1030499;28;20025;-72
2021/10/29 00:26:35;;;;;;;259.20;43.45;;;;;;;3.36;100.00;95846.97;1030097;28;20490;-72
2021/10/29 00:27:06;;;;;;;328.77;52.45;;;;;;;3.33;100.00;95839.59;1026441;28;20069;-71
2021/10/29 00:27:36;;;;;;;306.10;50.40;;;;;;;3.37;100.00;95842.56;1034533;28;20018;-70
2021/10/29 00:28:06;;;;;;;265.60;46.92;;;;;;;3.34;100.00;95840.38;1026750;28;20031;-71
2021/10/29 00:28:37;;;;;;;362.20;55.35;;;;;;;3.38;100.00;95841.53;1034333;28;20300;-73
2021/10/29 00:29:07;;;;;;;305.02;55.67;;;;;;;3.42;100.00;95846.09;1038562;28;20048;-73
2021/10/29 00:29:38;;;;;;;199.65;43.58;;;;;;;3.41;100.00;95852.28;1034476;28;20022;-72
2021/10/29 00:30:09;;;;;;;238.15;47.78;;;;;;;3.45;100.00;95853.44;1038800;28;20033;-72
2021/10/29 00:30:39;;;;;;;151.95;41.78;;;;;;;3.50;100.00;95850.22;1030363;28;20035;-72
2021/10/29 00:31:10;;;;;;;245.80;51.13;;;;;;;3.52;100.00;95850.78;1026423;28;20270;-72
2021/10/29 00:31:40;;;;;;;186.90;43.50;;;;;;;3.50;100.00;95855.41;1026313;28;20031;-71
2021/10/29 00:32:11;;;;;;;280.02;43.17;;;;;;;3.37;100.00;95845.94;1026434;28;20569;-73
2021/10/29 00:32:41;;;;;;;236.80;46.22;;;;;;;3.43;100.00;95847.69;1026596;28;20094;-72
2021/10/29 00:33:11;;;;;;;193.45;43.92;;;;;;;3.43;100.00;95847.69;1026244;28;20536;-70
2021/10/29 00:33:42;;;;;;;137.82;36.90;;;;;;;3.51;100.00;95847.38;1030343;28;20386;-71
2021/10/29 00:34:12;;;;;;;264.30;45.13;;;;;;;3.49;100.00;95853.81;1034481;28;20381;-72
2021/10/29 00:34:43;;;;;;;325.50;52.63;;;;;;;3.48;100.00;95845.22;1034622;28;20489;-73
2021/10/29 00:35:13;;;;;;;268.33;43.42;;;;;;;3.31;100.00;95844.19;1036353;28;20021;-72
2021/10/29 00:35:44;;;;;;;335.40;53.45;;;;;;;3.31;100.00;95836.41;1030364;28;20029;-72
2021/10/29 00:36:14;;;;;;;269.30;41.90;;;;;;;3.30;100.00;95842.63;1030347;28;20133;-74
2021/10/29 00:36:45;;;;;;;316.35;47.58;;;;;;;3.27;100.00;95849.00;1027668;28;20031;-72
2021/10/29 00:37:15;;;;;;;337.17;52.40;;;;;;;3.25;100.00;95848.47;1034648;28;20108;-72
2021/10/29 00:37:46;;;;;;;277.92;46.55;;;;;;;3.27;100.00;95846.41;1034537;28;20033;-70
2021/10/29 00:38:16;;;;;;;166.30;42.42;;;;;;;3.33;100.00;95844.78;1030445;28;20026;-70
2021/10/29 00:38:47;;;;;;;359.48;61.22;;;;;;;3.34;100.00;95848.97;1034202;28;20054;-73
2021/10/29 00:39:19;;;;;;;318.27;53.58;;;;;;;3.35;100.00;95842.75;1038711;28;20033;-73
2021/10/29 00:39:50;;;;;;;247.74;46.48;;;;;;;3.34;100.00;95843.78;1030977;28;20261;-72
2021/10/29 00:40:20;;;;;;;304.83;51.63;;;;;;;3.35;100.00;95841.97;1033796;28;20034;-73
2021/10/29 00:40:51;;;;;;;270.50;43.83;;;;;;;3.24;100.00;95838.28;1030518;28;20089;-72
2021/10/29 00:41:22;;;;;;;355.08;54.90;;;;;;;3.32;100.00;95840.63;1030578;28;20288;-73
2021/10/29 00:41:52;;;;;;;314.05;49.53;;;;;;;3.34;100.00;95845.56;1033875;28;20058;-72
2021/10/29 00:42:22;;;;;;;328.27;55.83;;;;;;;3.36;100.00;95846.16;1034760;28;20026;-72
2021/10/29 00:42:53;;;;;;;290.15;52.88;;;;;;;3.37;100.00;95842.56;1034966;28;20112;-72
2021/10/29 00:43:23;;;;;;;247.88;48.25;;;;;;;3.37;100.00;95845.16;1038615;28;20088;-71
2021/10/29 00:43:55;;;;;;;305.33;55.25;;;;;;;3.40;100.00;95858.47;1036327;28;20522;-71
2021/10/29 00:44:26;;;;;;;300.00;54.26;;;;;;;3.44;100.00;95851.06;1028877;28;20045;-71
2021/10/29 00:44:56;;;;;;;193.68;44.42;;;;;;;3.39;100.00;95838.75;1030811;28;20488;-71
2021/10/29 00:45:27;;;;;;;249.52;48.72;;;;;;;3.45;100.00;95847.44;1032036;28;20424;-71
2021/10/29 00:45:57;;;;;;;267.75;49.08;;;;;;;3.45;100.00;95850.84;1034800;28;20072;-72
2021/10/29 00:46:28;;;;;;;282.40;49.63;;;;;;;3.45;100.00;95848.25;1038864;28;20045;-72
2021/10/29 00:46:58;;;;;;;181.48;44.15;;;;;;;3.45;100.00;95848.25;1034418;28;20453;-73
2021/10/29 00:47:29;;;;;;;384.70;55.03;;;;;;;3.43;100.00;95846.88;1026598;28;20030;-71
2021/10/29 00:47:59;;;;;;;239.27;33.20;;;;;;;3.39;100.00;95843.94;1034841;28;20026;-71
2021/10/29 00:48:30;;;;;;;390.05;47.00;;;;;;;3.35;100.00;95842.75;1042839;28;20484;-71
2021/10/29 00:49:00;;;;;;;300.33;42.10;;;;;;;3.30;100.00;95840.03;1042773;28;20017;-70
2021/10/29 00:49:31;;;;;;;375.80;52.90;;;;;;;3.28;100.00;95836.84;1043059;28;20025;-71
2021/10/29 00:50:03;;;;;;;359.17;57.08;;;;;;;3.38;100.00;95842.31;1026799;28;20029;-72
2021/10/29 00:50:34;;;;;;;312.75;56.38;;;;;;;3.32;100.00;95838.03;1030410;28;20026;-73
2021/10/29 00:51:05;;;;;;;366.16;50.52;;;;;;;3.33;100.00;95831.03;1030752;28;20289;-73
2021/10/29 00:51:36;;;;;;;394.67;54.75;;;;;;;3.34;100.00;95836.00;1034765;28;20448;-72
2021/10/29 00:52:06;;;;;;;380.86;51.64;;;;;;;3.28;100.00;95831.66;1030631;28;20034;-72
2021/10/29 00:52:37;;;;;;;234.27;40.40;;;;;;;3.16;100.00;95804.88;1029820;28;20037;-72
2021/10/29 00:53:08;;;;;;;302.85;51.22;;;;;;;3.30;100.00;95822.66;1032365;28;20532;-71
2021/10/29 00:53:39;;;;;;;311.92;46.32;;;;;;;3.35;100.00;95836.78;1030848;28;20037;-72
2021/10/29 00:54:11;;;;;;;276.83;43.75;;;;;;;3.31;100.00;95833.81;1030849;28;20049;-71
2021/10/29 00:54:41;;;;;;;331.72;52.10;;;;;;;3.30;100.00;95824.47;1031148;28;20030;-70
2021/10/29 00:55:14;;;;;;;249.07;45.08;;;;;;;3.36;100.00;95831.41;1037471;28;20029;-71
2021/10/29 00:55:44;;;;;;;318.66;53.92;;;;;;;3.37;100.00;95834.78;1042681;28;20554;-70
2021/10/29 00:56:16;;;;;;;146.57;36.50;;;;;;;3.37;100.00;95832.97;1028079;28;20035;-71
2021/10/29 00:56:47;;;;;;;161.96;40.86;;;;;;;3.41;100.00;95830.75;1023114;28;20083;-72
2021/10/29 00:57:18;;;;;;;230.96;47.82;;;;;;;3.40;100.00;95826.56;1027206;28;20043;-72
2021/10/29 00:57:50;;;;;;;292.22;53.16;;;;;;;3.36;100.00;95828.00;1033139;28;20057;-72
2021/10/29 00:58:21;;;;;;;336.90;53.98;;;;;;;3.40;100.00;95829.94;1031034;28;20588;-72
2021/10/29 00:58:51;;;;;;;291.33;52.10;;;;;;;3.33;100.00;95820.66;1034213;28;20033;-72
2021/10/29 00:59:22;;;;;;;301.35;50.63;;;;;;;3.35;100.00;95829.78;1031491;28;20026;-72
2021/10/29 00:59:52;;;;;;;336.55;47.08;;;;;;;3.30;100.00;95824.47;1034428;28;20057;-71
2021/10/29 01:00:23;;;;;;;328.67;48.00;;;;;;;3.31;100.00;95832.03;1030722;28;20022;-70
2021/10/29 01:00:53;;;;;;;342.95;50.80;;;;;;;3.26;100.00;95825.91;1034693;28;20026;-72
2021/10/29 01:01:24;;;;;;;315.58;51.03;;;;;;;3.24;100.00;95830.50;1030583;28;20034;-70
2021/10/29 01:01:54;;;;;;;291.67;45.22;;;;;;;3.16;100.00;95810.84;1034860;28;20064;-70
2021/10/29 01:02:26;;;;;;;275.40;46.70;;;;;;;3.25;100.00;95821.72;1030938;28;20030;-71
2021/10/29 01:02:57;;;;;;;276.56;44.90;;;;;;;3.32;100.00;95819.88;1030849;28;20129;-72
2021/10/29 01:03:27;;;;;;;310.70;50.02;;;;;;;3.31;100.00;95831.22;1035061;28;20041;-70
2021/10/29 01:03:58;;;;;;;334.08;57.03;;;;;;;3.31;100.00;95826.03;1035207;28;20029;-72
2021/10/29 01:04:28;;;;;;;285.23;48.53;;;;;;;3.31;100.00;95823.44;1039172;28;20029;-71
2021/10/29 01:04:59;;;;;;;314.27;50.58;;;;;;;3.21;100.00;95813.56;1030608;28;20034;-72
2021/10/29 01:05:29;;;;;;;320.30;47.50;;;;;;;3.18;100.00;95808.81;1034010;28;20044;-73
2021/10/29 01:06:00;;;;;;;251.32;41.92;;;;;;;3.24;100.00;95815.72;1034290;28;20085;-70
2021/10/29 01:06:30;;;;;;;305.30;51.92;;;;;;;3.30;100.00;95820.06;1038831;28;20492;-72
2021/10/29 01:07:01;;;;;;;283.17;48.47;;;;;;;3.04;100.00;95774.44;1034819;28;20081;-72
2021/10/29 01:07:32;;;;;;;229.64;45.32;;;;;;;3.27;100.00;95804.16;1031683;28;20021;-70
2021/10/29 01:08:04;;;;;;;286.60;48.08;;;;;;;3.21;100.00;95805.00;1031048;28;20536;-72
2021/10/29 01:08:35;;;;;;;284.15;46.25;;;;;;;3.25;100.00;95819.13;1026801;28;20514;-71
2021/10/29 01:09:06;;;;;;;249.56;47.02;;;;;;;3.00;100.00;95782.88;1027342;28;20278;-72
2021/10/29 01:09:36;;;;;;;252.45;47.95;;;;;;;3.25;100.00;95822.53;1027439;28;20035;-73
2021/10/29 01:10:07;;;;;;;275.67;45.08;;;;;;;3.18;100.00;95808.03;1028101;28;20097;-71
2021/10/29 01:10:37;;;;;;;299.75;51.00;;;;;;;3.28;100.00;95826.47;1027469;28;20027;-71
2021/10/29 01:11:14;;;;;;;304.67;48.83;;;;;;;3.23;100.00;95818.56;1034525;28;20093;-72
2021/10/29 01:11:44;;;;;;;206.16;44.88;;;;;;;3.21;100.00;95810.97;1039518;28;20409;-71
2021/10/29 01:12:15;;;;;;;229.05;44.65;;;;;;;3.29;100.00;95820.28;1039474;28;20380;-70
2021/10/29 01:12:45;;;;;;;389.35;58.38;;;;;;;3.28;100.00;95818.69;1034884;28;20438;-71
2021/10/29 01:13:17;;;;;;;307.20;45.45;;;;;;;3.15;100.00;95814.41;1035336;28;20505;-70
2021/10/29 01:13:47;;;;;;;261.84;45.46;;;;;;;3.10;100.00;95818.66;1031483;28;20026;-72
2021/10/29 01:14:18;;;;;;;342.40;47.22;;;;;;;3.11;100.00;95815.84;1028363;28;20484;-71
2021/10/29 01:14:55;;;;;;;341.50;50.60;;;;;;;3.10;100.00;95813.50;1035626;28;20025;-71
2021/10/29 01:15:25;;;;;;;353.54;57.24;;;;;;;3.15;100.00;95817.00;1039692;28;20025;-70
2021/10/29 01:15:56;;;;;;;223.02;44.42;;;;;;;3.19;100.00;95814.81;1035046;28;20042;-70
2021/10/29 01:16:26;;;;;;;226.27;43.83;;;;;;;3.18;100.00;95813.19;1031389;28;20026;-71
2021/10/29 01:16:57;;;;;;;421.98;61.05;;;;;;;3.12;100.00;95806.28;1031986;28;20033;-70
2021/10/29 01:17:28;;;;;;;224.90;42.00;;;;;;;3.17;100.00;95811.63;1035477;28;20029;-74
2021/10/29 01:17:58;;;;;;;276.83;47.80;;;;;;;3.12;100.00;95807.09;1035381;28;20045;-71
2021/10/29 01:18:29;;;;;;;327.45;45.42;;;;;;;3.12;100.00;95816.63;1027246;28;20113;-70
2021/10/29 01:18:59;;;;;;;273.35;49.80;;;;;;;3.12;100.00;95806.28;1027277;28;20031;-70
2021/10/29 01:19:31;;;;;;;353.10;51.15;;;;;;;3.17;100.00;95809.03;1028732;28;20043;-71
2021/10/29 01:20:02;;;;;;;274.18;49.88;;;;;;;3.20;100.00;95809.41;1035341;28;20033;-71
2021/10/29 01:20:33;;;;;;;303.38;50.58;;;;;;;3.11;100.00;95800.31;1031293;28;20069;-71
2021/10/29 01:21:03;;;;;;;299.30;49.83;;;;;;;3.25;100.00;95806.16;1031872;28;20038;-70
2021/10/29 01:21:34;;;;;;;347.17;52.97;;;;;;;3.23;100.00;95806.38;1035430;28;20029;-71
2021/10/29 01:22:04;;;;;;;331.05;53.55;;;;;;;3.10;100.00;95798.72;1035321;28;20069;-72
2021/10/29 01:22:35;;;;;;;288.55;50.58;;;;;;;3.18;100.00;95800.25;1035366;28;20034;-71
2021/10/29 01:23:05;;;;;;;362.52;56.30;;;;;;;3.11;100.00;95799.50;1034617;28;20042;-71
2021/10/29 01:23:36;;;;;;;332.38;44.65;;;;;;;3.04;100.00;95790.00;1035309;28;20133;-70
2021/10/29 01:24:08;;;;;;;346.40;53.50;;;;;;;3.03;100.00;95788.41;1035181;28;20030;-71
2021/10/29 01:24:38;;;;;;;364.90;48.78;;;;;;;3.04;100.00;95795.19;1035102;28;20030;-73
2021/10/29 01:25:10;;;;;;;348.77;49.22;;;;;;;3.09;100.00;95801.53;1034823;28;20053;-71
2021/10/29 01:25:40;;;;;;;342.32;48.08;;;;;;;3.06;100.00;95798.34;1039446;28;20025;-71
2021/10/29 01:26:16;;;;;;;387.15;54.50;;;;;;;3.06;100.00;95800.94;1034816;28;20481;-73
2021/10/29 01:26:46;;;;;;;384.50;54.98;;;;;;;3.10;100.00;95803.91;1035400;28;20044;-71
2021/10/29 01:27:17;;;;;;;364.80;41.95;;;;;;;3.12;100.00;95793.31;1035335;28;20022;-72
2021/10/29 01:27:48;;;;;;;336.70;49.68;;;;;;;3.07;100.00;95792.16;1032283;28;20129;-71
2021/10/29 01:28:18;;;;;;;433.13;58.70;;;;;;;3.13;100.00;95798.28;1035432;28;20390;-71
2021/10/29 01:28:49;;;;;;;429.98;57.17;;;;;;;3.17;100.00;95796.06;1039635;28;20029;-70
2021/10/29 01:29:20;;;;;;;368.05;51.88;;;;;;;3.17;100.00;95796.06;1039482;28;20029;-71
2021/10/29 01:29:51;;;;;;;370.32;53.78;;;;;;;3.17;100.00;95793.47;1039086;28;20034;-71
2021/10/29 01:30:21;;;;;;;320.98;49.42;;;;;;;3.17;100.00;95793.47;1039346;28;20405;-72
2021/10/29 01:30:51;;;;;;;408.50;55.13;;;;;;;3.19;100.00;95796.66;1035599;28;20089;-71
2021/10/29 01:31:25;;;;;;;313.78;51.46;;;;;;;3.17;100.00;95793.47;1036491;28;20026;-71
2021/10/29 01:31:55;;;;;;;306.58;51.95;;;;;;;3.11;100.00;95783.97;1027315;28;20224;-72
2021/10/29 01:32:26;;;;;;;211.68;45.42;;;;;;;3.17;100.00;95790.88;1035139;28;20448;-71
2021/10/29 01:32:56;;;;;;;390.50;51.17;;;;;;;3.15;100.00;95785.09;1035185;28;20068;-71
2021/10/29 01:33:29;;;;;;;447.67;50.60;;;;;;;3.12;100.00;95790.72;1039251;28;20040;-71
2021/10/29 01:33:59;;;;;;;336.60;47.46;;;;;;;3.06;100.00;95785.41;1039018;28;20025;-71
2021/10/29 01:34:30;;;;;;;320.67;47.55;;;;;;;3.04;100.00;95789.19;1031362;28;20363;-72
2021/10/29 01:35:00;;;;;;;354.70;55.67;;;;;;;3.10;100.00;95788.34;1027190;28;20126;-71
2021/10/29 01:35:31;;;;;;;294.58;50.85;;;;;;;3.09;100.00;95786.00;1030465;28;20350;-72
2021/10/29 01:36:01;;;;;;;328.08;51.05;;;;;;;3.15;100.00;95790.28;1035342;28;20037;-71
2021/10/29 01:36:32;;;;;;;299.45;49.53;;;;;;;3.11;100.00;95781.38;1026453;28;20054;-70
2021/10/29 01:37:06;;;;;;;351.10;54.65;;;;;;;3.09;100.00;95783.41;1035398;28;20022;-71
2021/10/29 01:37:39;;;;;;;287.96;44.02;;;;;;;3.11;100.00;95789.13;1027170;28;20027;-71
2021/10/29 01:38:09;;;;;;;335.64;50.38;;;;;;;3.13;100.00;95782.75;1031828;28;20575;-72
2021/10/29 01:38:41;;;;;;;250.77;48.25;;;;;;;3.14;100.00;95781.72;1032235;28;20097;-71
2021/10/29 01:39:16;;;;;;;264.32;50.74;;;;;;;3.11;100.00;95782.16;1032458;28;20042;-71
2021/10/29 01:39:46;;;;;;;267.48;43.36;;;;;;;2.98;100.00;95758.94;1030961;28;20042;-70
2021/10/29 01:40:17;;;;;;;228.50;41.88;;;;;;;3.13;100.00;95771.59;1031923;28;20030;-70
2021/10/29 01:40:48;;;;;;;264.20;44.28;;;;;;;3.13;100.00;95781.97;1035968;28;20029;-72
2021/10/29 01:41:19;;;;;;;303.88;47.40;;;;;;;3.09;100.00;95786.00;1035758;28;20034;-71
2021/10/29 01:41:49;;;;;;;290.45;47.00;;;;;;;3.11;100.00;95781.38;1039229;28;20033;-71
2021/10/29 01:42:19;;;;;;;305.35;49.30;;;;;;;3.10;100.00;95782.38;1031437;28;20030;-70
2021/10/29 01:42:50;;;;;;;324.23;56.22;;;;;;;3.09;100.00;95773.81;1031228;28;20034;-71
2021/10/29 01:43:20;;;;;;;255.25;47.22;;;;;;;3.17;100.00;95778.72;1030916;28;20037;-68
2021/10/29 01:43:51;;;;;;;168.02;36.78;;;;;;;3.21;100.00;95779.84;1031297;28;20449;-71
2021/10/29 01:44:21;;;;;;;171.68;43.70;;;;;;;3.16;100.00;95768.56;1033661;28;20100;-72
2021/10/29 01:44:52;;;;;;;265.30;47.30;;;;;;;3.26;100.00;95781.81;1030946;28;20026;-69
2021/10/29 01:45:22;;;;;;;298.38;46.20;;;;;;;3.29;100.00;95781.41;1033211;28;20493;-70
2021/10/29 01:45:53;;;;;;;281.95;43.40;;;;;;;3.13;100.00;95779.38;1031047;28;20052;-71
2021/10/29 01:46:24;;;;;;;372.65;49.38;;;;;;;3.07;100.00;95781.00;1029601;28;20030;-72
2021/10/29 01:46:54;;;;;;;295.95;45.72;;;;;;;2.97;100.00;95770.34;1034865;28;20033;-71
2021/10/29 01:47:24;;;;;;;378.77;48.40;;;;;;;2.97;100.00;95780.69;1033537;28;20389;-72
2021/10/29 01:47:55;;;;;;;347.00;50.88;;;;;;;2.99;100.00;95776.91;1043222;28;20033;-72
2021/10/29 01:48:25;;;;;;;252.85;44.13;;;;;;;3.03;100.00;95782.44;1045768;28;20259;-69
2021/10/29 01:48:56;;;;;;;305.98;49.15;;;;;;;2.97;100.00;95776.31;1038701;28;20464;-71
2021/10/29 01:49:26;;;;;;;359.98;53.15;;;;;;;3.01;100.00;95784.44;1039044;28;20017;-73
2021/10/29 01:49:57;;;;;;;261.83;50.03;;;;;;;3.01;100.00;95774.88;1035077;28;20021;-72
2021/10/29 01:50:27;;;;;;;352.77;56.15;;;;;;;3.03;100.00;95772.88;1030743;28;20057;-69
2021/10/29 01:50:58;;;;;;;377.35;59.53;;;;;;;2.99;100.00;95769.13;1026951;28;20482;-71
2021/10/29 01:51:28;;;;;;;275.98;52.65;;;;;;;3.13;100.00;95781.97;1027147;28;20548;-72
2021/10/29 01:51:59;;;;;;;343.02;54.55;;;;;;;3.03;100.00;95769.47;1030900;28;20026;-70
2021/10/29 01:52:29;;;;;;;333.17;54.33;;;;;;;3.03;100.00;95772.88;1027233;28;20022;-72
2021/10/29 01:53:00;;;;;;;267.52;52.33;;;;;;;3.09;100.00;95770.44;1031017;28;20023;-71
2021/10/29 01:53:30;;;;;;;267.58;53.92;;;;;;;3.15;100.00;95772.94;1033824;28;20068;-71
2021/10/29 01:54:01;;;;;;;165.73;39.70;;;;;;;3.12;100.00;95769.97;1030956;28;20045;-71
2021/10/29 01:54:31;;;;;;;231.95;49.53;;;;;;;3.16;100.00;95771.94;1031171;28;20066;-71
2021/10/29 01:55:03;;;;;;;263.60;56.05;;;;;;;3.23;100.00;95774.47;1030904;28;20030;-71
2021/10/29 01:55:34;;;;;;;264.06;53.40;;;;;;;3.20;100.00;95767.13;1032823;28;20029;-71
2021/10/29 01:56:05;;;;;;;263.55;53.25;;;;;;;3.25;100.00;95769.84;1034971;28;20452;-72
2021/10/29 01:56:35;;;;;;;317.52;54.06;;;;;;;3.27;100.00;95776.41;1027023;28;20027;-70
2021/10/29 01:57:05;;;;;;;277.05;57.90;;;;;;;3.30;100.00;95772.59;1026739;28;20036;-71
2021/10/29 01:57:36;;;;;;;233.68;50.72;;;;;;;3.32;100.00;95780.97;1027131;28;20077;-70
2021/10/29 01:58:06;;;;;;;284.30;49.67;;;;;;;3.27;100.00;95773.81;1027213;28;20031;-71
2021/10/29 01:58:37;;;;;;;289.33;51.17;;;;;;;3.29;100.00;95773.63;1035041;28;20493;-69
2021/10/29 01:59:07;;;;;;;204.23;44.47;;;;;;;3.32;100.00;95770.59;1031041;28;20691;-70
2021/10/29 01:59:38;;;;;;;341.65;54.75;;;;;;;3.27;100.00;95773.03;1026748;28;20856;-71
2021/10/29 02:00:08;;;;;;;287.40;53.40;;;;;;;3.31;100.00;95771.59;1027166;28;20502;-69
2021/10/29 02:00:39;;;;;;;201.70;45.67;;;;;;;3.31;100.00;95771.59;1031036;28;20027;-71
2021/10/29 02:01:09;;;;;;;213.80;47.05;;;;;;;3.25;100.00;95754.28;1035125;28;20041;-71
2021/10/29 02:01:40;;;;;;;245.60;49.08;;;;;;;3.33;100.00;95771.38;1038329;28;20021;-72
2021/10/29 02:02:10;;;;;;;215.00;47.58;;;;;;;3.35;100.00;95766.75;1033379;28;20049;-71
2021/10/29 02:02:41;;;;;;;212.27;44.25;;;;;;;3.34;100.00;95768.56;1031098;28;20441;-71
2021/10/29 02:03:12;;;;;;;234.68;49.78;;;;;;;3.33;100.00;95772.19;1034155;28;20121;-71
2021/10/29 02:03:42;;;;;;;282.67;49.33;;;;;;;3.18;100.00;95753.56;1034912;28;20497;-69
2021/10/29 02:04:12;;;;;;;279.35;49.92;;;;;;;3.24;100.00;95757.91;1030880;28;20026;-70
2021/10/29 02:04:43;;;;;;;262.63;51.15;;;;;;;3.20;100.00;95751.56;1027020;28;20041;-71
2021/10/29 02:05:14;;;;;;;291.38;54.47;;;;;;;3.31;100.00;95763.81;1026403;28;20026;-72
2021/10/29 02:05:44;;;;;;;283.42;53.63;;;;;;;3.27;100.00;95762.66;1030562;28;20042;-70
2021/10/29 02:06:15;;;;;;;294.70;47.28;;;;;;;3.25;100.00;95764.66;1035369;28;20025;-71
2021/10/29 02:06:45;;;;;;;348.50;54.00;;;;;;;3.27;100.00;95757.47;1035110;28;20416;-71
2021/10/29 02:07:16;;;;;;;264.08;47.28;;;;;;;3.26;100.00;95766.28;1034801;28;20048;-71
2021/10/29 02:07:47;;;;;;;228.23;49.35;;;;;;;3.22;100.00;95744.34;1038886;28;20029;-71
2021/10/29 02:08:22;;;;;;;276.98;53.92;;;;;;;3.26;100.00;95759.28;1034996;28;20120;-73
2021/10/29 02:08:53;;;;;;;292.78;49.48;;;;;;;3.13;100.00;95749.03;1026477;28;20026;-73
2021/10/29 02:09:23;;;;;;;257.92;49.72;;;;;;;3.25;100.00;95764.66;1038963;28;20033;-72
2021/10/29 02:09:57;;;;;;;336.48;58.38;;;;;;;3.17;100.00;95754.59;1038926;28;20033;-71
2021/10/29 02:10:27;;;;;;;362.78;62.22;;;;;;;3.13;100.00;95745.66;1035971;28;20091;-72
2021/10/29 02:10:57;;;;;;;365.55;50.45;;;;;;;3.13;100.00;95749.03;1027037;28;20102;-70
2021/10/29 02:11:28;;;;;;;340.77;46.47;;;;;;;3.11;100.00;95752.84;1027281;28;20026;-72
2021/10/29 02:11:58;;;;;;;284.15;48.15;;;;;;;3.04;100.00;95739.94;1032021;28;20026;-70
2021/10/29 02:12:29;;;;;;;320.88;51.92;;;;;;;3.09;100.00;95744.50;1026793;28;20015;-71
2021/10/29 02:12:59;;;;;;;396.10;58.05;;;;;;;3.07;100.00;95747.31;1027055;28;20037;-73
2021/10/29 02:13:30;;;;;;;295.05;49.25;;;;;;;2.97;100.00;95740.03;1026898;28;20023;-69
2021/10/29 02:14:00;;;;;;;239.98;45.45;;;;;;;2.99;100.00;95745.78;1030692;28;20041;-71
2021/10/29 02:14:31;;;;;;;245.10;53.38;;;;;;;3.01;100.00;95743.75;1034937;28;20496;-72
2021/10/29 02:15:03;;;;;;;304.38;51.05;;;;;;;3.07;100.00;95742.91;1034969;28;20031;-72
2021/10/29 02:15:33;;;;;;;284.46;50.60;;;;;;;3.09;100.00;95750.50;1034318;28;20038;-71
2021/10/29 02:16:04;;;;;;;323.48;52.33;;;;;;;3.02;100.00;95747.97;1026547;28;20031;-72
2021/10/29 02:16:35;;;;;;;411.96;53.88;;;;;;;2.95;100.00;95739.47;1029737;28;20720;-72
2021/10/29 02:17:05;;;;;;;353.38;60.30;;;;;;;3.05;100.00;95747.53;1035075;28;20040;-70
2021/10/29 02:17:36;;;;;;;347.70;55.30;;;;;;;3.00;100.00;95741.41;1035131;28;20111;-72
2021/10/29 02:18:06;;;;;;;302.48;56.08;;;;;;;3.06;100.00;95750.91;1034753;28;20634;-71
2021/10/29 02:18:37;;;;;;;354.88;58.30;;;;;;;3.10;100.00;95751.28;1030785;28;20544;-71
2021/10/29 02:19:07;;;;;;;303.63;55.33;;;;;;;3.10;100.00;95746.09;1038693;28;20509;-70
2021/10/29 02:19:38;;;;;;;290.13;54.45;;;;;;;3.12;100.00;95746.66;1039310;28;20029;-73